Palflot-5 — UBHC — position and weather

sailwx.info

Track history (hours):
 
Tides and Currents Weather Stations Pressure Air Temp Water Temp Dewpoint Dewpoint Depression Visibility Wind Speed Wind Dir Waves Ship Positions

Palflot-5

Last reported at 2015-Feb-13 21:33 UTC. Time now 2015-Mar-06 12:41 UTC.
Position N 44°32' E 037°34'.
Warning: this ship's position is 20 days out of date.

Length 122 m; draft 2.4 m.

Type: Tanker. MMSI: 273443040.

Date/timePositionNaut miles runAvg speedWind from/ knotsBaromVisibWave heightAir tempDewpointWater temp
2015-Feb-13 21:33N 44°32' E 037°34'7 6.7
2015-Feb-13 20:29N 44°29' E 037°43'7 6.8
2015-Feb-13 19:29N 44°26' E 037°51'31 7.1
2015-Feb-13 15:07N 44°11' E 038°29'4 7.6
2015-Feb-13 14:33N 44°08' E 038°34'8 7.6
2015-Feb-13 13:33N 44°05' E 038°43'8 8.2
2015-Feb-13 12:34N 44°01' E 038°53'8 8.0
2015-Feb-13 11:33N 43°55' E 039°01'8 8.2
2015-Feb-13 10:33N 43°49' E 039°08'  
2015-Feb-10 09:06N 43°46' E 039°11'4 6.6
2015-Feb-10 08:33N 43°49' E 039°08'6 6.4
2015-Feb-10 07:33N 43°54' E 039°03'6 6.4
2015-Feb-10 06:34N 43°59' E 038°57'6 6.2
2015-Feb-10 05:33N 44°03' E 038°50'6 6.4
2015-Feb-10 04:33N 44°05' E 038°42'47 6.6
2015-Feb-09 21:30N 44°27' E 037°45'  
Track history (hours):
 
Tides and Currents Weather Stations Pressure Air Temp Water Temp Dewpoint Dewpoint Depression Visibility Wind Speed Wind Dir Waves Ship Positions

Palflot-5

Last reported at 2015-Feb-13 21:33 UTC. Time now 2015-Mar-06 12:41 UTC.
Position N 44°32' E 037°34'.
Warning: this ship's position is 20 days out of date.

Length 122 m; draft 2.4 m.

Type: Tanker. MMSI: 273443040.

Date/timePositionNaut miles runAvg speedWind from/ knotsBaromVisibWave heightAir tempDewpointWater temp
2015-Feb-13 21:33N 44°32' E 037°34'7 6.7
2015-Feb-13 20:29N 44°29' E 037°43'7 6.8
2015-Feb-13 19:29N 44°26' E 037°51'31 7.1
2015-Feb-13 15:07N 44°11' E 038°29'4 7.6
2015-Feb-13 14:33N 44°08' E 038°34'8 7.6
2015-Feb-13 13:33N 44°05' E 038°43'8 8.2
2015-Feb-13 12:34N 44°01' E 038°53'8 8.0
2015-Feb-13 11:33N 43°55' E 039°01'8 8.2
2015-Feb-13 10:33N 43°49' E 039°08'  
2015-Feb-10 09:06N 43°46' E 039°11'4 6.6
2015-Feb-10 08:33N 43°49' E 039°08'6 6.4
2015-Feb-10 07:33N 43°54' E 039°03'6 6.4
2015-Feb-10 06:34N 43°59' E 038°57'6 6.2
2015-Feb-10 05:33N 44°03' E 038°50'6 6.4
2015-Feb-10 04:33N 44°05' E 038°42'47 6.6
2015-Feb-09 21:30N 44°27' E 037°45'  

Dump ship's entire track history